Time;durP1;ratioP1;P1;durP2;ratioP2;P2;SDS_P1;SDS_P2;PMS_P1;PMS_P2;Temp;Humidity;BMP_temperature;BMP_pressure;BME280_temperature;BME280_humidity;BME280_pressure;Samples;Min_cycle;Max_cycle;Signal;HPM_P1;HPM_P2
2022/04/16 00:00:00;;;;;;;0.00;0.00;;;6.90;99.90;;;;;;5062083;28;20044;-67
2022/04/16 00:02:27;;;;;;;0.00;0.00;;;6.90;99.90;;;;;;5061502;28;20048;-68
2022/04/16 00:04:53;;;;;;;0.00;0.00;;;6.90;99.90;;;;;;5060764;28;20048;-67
2022/04/16 00:07:18;;;;;;;0.00;0.00;;;7.00;99.90;;;;;;5060312;28;20457;-67
2022/04/16 00:09:44;;;;;;;0.00;0.00;;;7.10;99.90;;;;;;5061491;28;20045;-70
2022/04/16 00:12:09;;;;;;;0.00;0.00;;;7.00;99.90;;;;;;5061579;28;20043;-63
2022/04/16 00:14:36;;;;;;;0.00;0.00;;;7.00;99.90;;;;;;5060906;28;20097;-69
2022/04/16 00:17:02;;;;;;;0.00;0.00;;;7.00;99.90;;;;;;5061357;28;20107;-70
2022/04/16 00:19:27;;;;;;;0.00;0.00;;;7.00;99.90;;;;;;5061301;28;20048;-70
2022/04/16 00:21:53;;;;;;;0.00;0.00;;;7.00;99.90;;;;;;5060913;28;20483;-66
2022/04/16 00:24:19;;;;;;;0.00;0.00;;;7.00;99.90;;;;;;5060537;28;20036;-67
2022/04/16 00:26:46;;;;;;;0.00;0.00;;;7.00;99.90;;;;;;5060330;28;20125;-70
2022/04/16 00:29:15;;;;;;;0.00;0.00;;;7.00;99.90;;;;;;5060903;28;20048;-70
2022/04/16 00:31:45;;;;;;;0.08;0.08;;;7.00;99.90;;;;;;5060558;28;20067;-67
2022/04/16 00:34:14;;;;;;;0.00;0.00;;;7.00;99.90;;;;;;5058745;28;20138;-64
2022/04/16 00:36:44;;;;;;;0.00;0.00;;;7.00;99.90;;;;;;5060557;28;20197;-67
2022/04/16 00:39:10;;;;;;;0.00;0.00;;;7.90;99.90;;;;;;5060198;28;20037;-68
2022/04/16 00:41:37;;;;;;;0.00;0.00;;;6.90;99.90;;;;;;5061284;28;20047;-67
2022/04/16 00:44:02;;;;;;;0.00;0.00;;;6.90;99.90;;;;;;5060976;28;20074;-67
2022/04/16 00:46:28;;;;;;;0.00;0.00;;;6.90;99.90;;;;;;5054766;28;20121;-67
2022/04/16 00:48:54;;;;;;;0.00;0.00;;;6.90;99.90;;;;;;5044578;28;20052;-68
2022/04/16 00:51:20;;;;;;;0.00;0.00;;;6.90;99.90;;;;;;5040398;28;20048;-67
2022/04/16 00:53:46;;;;;;;0.00;0.00;;;6.90;99.90;;;;;;5040813;28;20041;-68
2022/04/16 00:56:13;;;;;;;0.00;0.00;;;6.80;99.90;;;;;;5040144;28;20040;-68
2022/04/16 00:58:41;;;;;;;0.00;0.00;;;6.80;99.90;;;;;;5041328;28;20107;-67
2022/04/16 01:01:08;;;;;;;0.00;0.00;;;6.80;99.90;;;;;;5041476;28;20546;-67
2022/04/16 01:03:34;;;;;;;0.00;0.00;;;6.80;99.90;;;;;;5040346;28;20049;-67
2022/04/16 01:05:59;;;;;;;0.00;0.00;;;7.70;99.90;;;;;;5039988;28;20063;-67
2022/04/16 01:08:25;;;;;;;0.00;0.00;;;6.90;99.90;;;;;;5040134;28;20060;-67
2022/04/16 01:10:51;;;;;;;0.00;0.00;;;6.90;99.90;;;;;;5053093;28;20044;-68
2022/04/16 01:13:18;;;;;;;0.00;0.00;;;7.00;99.90;;;;;;5039847;28;20041;-68
2022/04/16 01:15:44;;;;;;;0.00;0.00;;;7.00;99.90;;;;;;5041379;28;20051;-68
2022/04/16 01:18:12;;;;;;;0.00;0.00;;;7.00;99.90;;;;;;5045796;28;20043;-67
2022/04/16 01:20:39;;;;;;;0.00;0.00;;;7.10;99.90;;;;;;5061076;28;20072;-68
2022/04/16 01:23:05;;;;;;;0.00;0.00;;;7.10;99.90;;;;;;5059304;28;20064;-68
2022/04/16 01:25:33;;;;;;;0.00;0.00;;;7.10;99.90;;;;;;5059252;28;20461;-67
2022/04/16 01:28:00;;;;;;;0.00;0.00;;;7.20;99.90;;;;;;5059584;28;20048;-67
2022/04/16 01:30:26;;;;;;;0.00;0.00;;;7.30;99.90;;;;;;5059709;28;20076;-68
2022/04/16 01:32:52;;;;;;;0.00;0.00;;;7.30;99.90;;;;;;5060882;28;20036;-68
2022/04/16 01:35:18;;;;;;;0.00;0.00;;;7.40;99.90;;;;;;5059997;28;20515;-67
2022/04/16 01:37:44;;;;;;;0.00;0.00;;;7.40;99.90;;;;;;5058926;28;20040;-68
2022/04/16 01:40:14;;;;;;;0.00;0.00;;;8.50;99.90;;;;;;5059847;28;20028;-68
2022/04/16 01:42:43;;;;;;;0.00;0.00;;;7.40;99.90;;;;;;5060467;28;20120;-68
2022/04/16 01:45:10;;;;;;;0.00;0.00;;;7.40;99.90;;;;;;5058755;28;20044;-68
2022/04/16 01:47:38;;;;;;;0.00;0.00;;;7.40;99.90;;;;;;5053746;28;20155;-68
2022/04/16 01:50:05;;;;;;;0.00;0.00;;;7.40;99.90;;;;;;5044364;28;20041;-68
2022/04/16 01:52:32;;;;;;;0.00;0.00;;;7.40;99.90;;;;;;5042855;28;20130;-68
2022/04/16 01:54:58;;;;;;;0.00;0.00;;;7.50;99.90;;;;;;5042138;28;20060;-68
2022/04/16 01:57:24;;;;;;;0.00;0.00;;;7.50;99.90;;;;;;5043708;28;20090;-67
2022/04/16 01:59:50;;;;;;;0.00;0.00;;;7.50;99.90;;;;;;5043874;28;20037;-67
2022/04/16 02:02:16;;;;;;;0.00;0.00;;;7.50;99.90;;;;;;5043619;28;20137;-67
2022/04/16 02:04:43;;;;;;;0.00;0.00;;;7.60;99.90;;;;;;5043404;28;20067;-68
2022/04/16 02:07:09;;;;;;;0.00;0.00;;;7.60;99.90;;;;;;5043108;28;20412;-68
2022/04/16 02:09:35;;;;;;;0.00;0.00;;;7.70;99.90;;;;;;5043837;28;20133;-68
2022/04/16 02:12:01;;;;;;;0.00;0.00;;;7.90;99.90;;;;;;5043695;28;20610;-69
2022/04/16 02:14:27;;;;;;;0.00;0.00;;;7.80;99.90;;;;;;5042358;28;20065;-68
2022/04/16 02:16:53;;;;;;;0.00;0.00;;;7.70;99.90;;;;;;5044279;28;20037;-68
2022/04/16 02:19:20;;;;;;;0.00;0.00;;;7.70;99.90;;;;;;5043040;28;20037;-68
2022/04/16 02:21:47;;;;;;;0.00;0.00;;;7.70;99.90;;;;;;5057310;28;20049;-68
2022/04/16 02:24:13;;;;;;;0.00;0.00;;;7.70;99.90;;;;;;5043266;28;20056;-68
2022/04/16 02:26:40;;;;;;;0.00;0.00;;;7.70;99.90;;;;;;5042561;28;20048;-66
2022/04/16 02:29:05;;;;;;;0.00;0.00;;;7.70;99.90;;;;;;5043377;28;20049;-68
2022/04/16 02:31:31;;;;;;;0.00;0.00;;;7.70;99.90;;;;;;5042724;28;20048;-67
2022/04/16 02:33:57;;;;;;;0.00;0.00;;;7.70;99.90;;;;;;5042947;28;20037;-67
2022/04/16 02:36:26;;;;;;;0.00;0.00;;;7.70;99.90;;;;;;5040876;28;20052;-66
2022/04/16 02:38:54;;;;;;;0.00;0.00;;;7.60;99.90;;;;;;5042820;28;20047;-67
2022/04/16 02:41:20;;;;;;;0.00;0.00;;;7.60;99.90;;;;;;5042764;28;20087;-69
2022/04/16 02:43:47;;;;;;;0.00;0.00;;;7.60;99.90;;;;;;5042927;28;20048;-67
2022/04/16 02:48:57;;;;;;;0.10;0.10;;;7.60;99.90;;;;;;5046713;28;20092;-66
2022/04/16 02:51:23;;;;;;;0.00;0.00;;;7.60;99.90;;;;;;5041910;28;20098;-67
2022/04/16 02:53:49;;;;;;;0.00;0.00;;;7.50;99.90;;;;;;5041180;28;20071;-68
2022/04/16 02:56:15;;;;;;;0.00;0.00;;;7.50;99.90;;;;;;5042350;28;20045;-63
2022/04/16 02:58:40;;;;;;;0.00;0.00;;;7.50;99.90;;;;;;5042173;28;20044;-67
2022/04/16 03:01:06;;;;;;;0.00;0.00;;;7.40;99.90;;;;;;5043061;28;20045;-67
2022/04/16 03:03:32;;;;;;;0.00;0.00;;;7.40;99.90;;;;;;5040643;28;20049;-68
2022/04/16 03:05:58;;;;;;;0.00;0.00;;;7.40;99.90;;;;;;5042476;28;20048;-68
2022/04/16 03:08:24;;;;;;;0.00;0.00;;;7.40;99.90;;;;;;5041754;28;20613;-69
2022/04/16 03:10:51;;;;;;;0.25;0.25;;;7.40;99.90;;;;;;5042394;28;20048;-67
2022/04/16 03:13:17;;;;;;;0.00;0.00;;;7.40;99.90;;;;;;5056830;28;20048;-67
2022/04/16 03:18:27;;;;;;;0.10;0.10;;;7.30;99.90;;;;;;5041689;28;20131;-68
2022/04/16 03:20:54;;;;;;;0.00;0.00;;;7.40;99.90;;;;;;5024349;28;20140;-68
2022/04/16 03:23:19;;;;;;;0.00;0.00;;;7.40;99.90;;;;;;5040983;28;20128;-69
2022/04/16 03:25:48;;;;;;;0.00;0.00;;;7.40;99.90;;;;;;5042773;28;20136;-67
2022/04/16 03:28:14;;;;;;;0.00;0.00;;;7.30;99.90;;;;;;5041589;28;20415;-65
2022/04/16 03:30:40;;;;;;;0.00;0.00;;;7.40;99.90;;;;;;5042107;28;20041;-68
2022/04/16 03:33:08;;;;;;;0.00;0.00;;;7.60;99.90;;;;;;5042525;28;20098;-67
2022/04/16 03:35:35;;;;;;;0.00;0.00;;;7.30;99.90;;;;;;5040961;28;20048;-67
2022/04/16 03:38:01;;;;;;;0.00;0.00;;;7.30;99.90;;;;;;5041127;28;20051;-67
2022/04/16 03:40:27;;;;;;;0.20;0.20;;;7.30;99.90;;;;;;5041817;28;20184;-66
2022/04/16 03:42:58;;;;;;;0.00;0.00;;;7.30;99.90;;;;;;5042135;28;20716;-67
2022/04/16 03:45:32;;;;;;;0.00;0.00;;;7.20;99.90;;;;;;5042813;28;20135;-67
2022/04/16 03:47:59;;;;;;;0.00;0.00;;;7.20;99.90;;;;;;5049623;28;20049;-67
2022/04/16 03:50:27;;;;;;;0.00;0.00;;;7.20;99.90;;;;;;5040494;28;20543;-67
2022/04/16 03:52:53;;;;;;;0.00;0.00;;;7.20;99.90;;;;;;5041197;28;20075;-67
2022/04/16 04:00:58;;;;;;;1.15;0.30;;;7.20;99.90;;;;;;5041674;28;20045;-67
2022/04/16 04:03:24;;;;;;;0.65;0.30;;;7.20;99.90;;;;;;5040485;28;20164;-67
2022/04/16 04:05:53;;;;;;;0.00;0.00;;;7.20;99.90;;;;;;5041652;28;20415;-67
2022/04/16 04:08:19;;;;;;;0.00;0.00;;;7.20;99.90;;;;;;5041010;28;20124;-67
2022/04/16 04:10:46;;;;;;;0.00;0.00;;;7.20;99.90;;;;;;5056065;28;20037;-68
2022/04/16 04:13:13;;;;;;;0.00;0.00;;;7.20;99.90;;;;;;5041055;28;20822;-67
2022/04/16 04:15:39;;;;;;;0.05;0.05;;;7.20;99.90;;;;;;5040418;28;20053;-68
2022/04/16 04:18:05;;;;;;;0.00;0.00;;;7.20;99.90;;;;;;5057290;28;20049;-68
2022/04/16 04:20:31;;;;;;;0.00;0.00;;;7.20;99.90;;;;;;5040461;28;20084;-67
2022/04/16 04:22:57;;;;;;;0.00;0.00;;;8.40;99.90;;;;;;5040991;28;20083;-67
2022/04/16 04:25:23;;;;;;;0.00;0.00;;;7.30;99.90;;;;;;5040883;28;20125;-68
2022/04/16 04:27:49;;;;;;;0.00;0.00;;;7.20;99.90;;;;;;5041199;28;20476;-67
2022/04/16 04:30:15;;;;;;;0.00;0.00;;;7.20;99.90;;;;;;5040682;28;20116;-66
2022/04/16 04:32:41;;;;;;;0.00;0.00;;;7.30;99.90;;;;;;5041244;28;20476;-67
2022/04/16 04:35:08;;;;;;;0.10;0.10;;;7.30;99.90;;;;;;5041520;28;20047;-69
2022/04/16 04:37:34;;;;;;;0.00;0.00;;;7.30;99.90;;;;;;5039612;28;20044;-67
2022/04/16 04:40:00;;;;;;;0.00;0.00;;;7.30;99.90;;;;;;5040873;28;20127;-67
2022/04/16 04:42:27;;;;;;;0.00;0.00;;;7.30;99.90;;;;;;5040455;28;20385;-67
2022/04/16 04:44:53;;;;;;;0.00;0.00;;;7.20;99.90;;;;;;5040678;28;20068;-67
2022/04/16 04:47:19;;;;;;;0.00;0.00;;;7.20;99.90;;;;;;5051218;28;20044;-67
2022/04/16 04:49:45;;;;;;;0.00;0.00;;;7.20;99.90;;;;;;5039790;28;20073;-68
2022/04/16 04:52:19;;;;;;;0.00;0.00;;;7.20;99.90;;;;;;5040055;28;20098;-67
2022/04/16 04:54:44;;;;;;;0.00;0.00;;;7.20;99.90;;;;;;5040400;28;20053;-68
2022/04/16 04:57:10;;;;;;;0.00;0.00;;;7.20;99.90;;;;;;5040996;28;20044;-68
2022/04/16 04:59:35;;;;;;;0.00;0.00;;;7.20;99.90;;;;;;5039906;28;20049;-67
2022/04/16 05:02:01;;;;;;;0.00;0.00;;;7.20;99.90;;;;;;5040784;28;20047;-67
2022/04/16 05:04:26;;;;;;;0.10;0.10;;;7.20;99.90;;;;;;5039965;28;20076;-67
2022/04/16 05:06:52;;;;;;;0.00;0.00;;;7.20;99.90;;;;;;5040152;28;20283;-68
2022/04/16 05:09:18;;;;;;;0.00;0.00;;;7.20;99.90;;;;;;5040713;28;20491;-69
2022/04/16 05:11:43;;;;;;;0.00;0.00;;;7.20;99.90;;;;;;5040110;28;20040;-71
2022/04/16 05:14:09;;;;;;;0.00;0.00;;;7.20;99.90;;;;;;5041473;28;20055;-67
2022/04/16 05:16:34;;;;;;;0.00;0.00;;;7.20;99.90;;;;;;5040936;28;20179;-69
2022/04/16 05:19:00;;;;;;;0.00;0.00;;;7.30;99.90;;;;;;5041023;28;20053;-67
2022/04/16 05:21:26;;;;;;;0.00;0.00;;;7.30;99.90;;;;;;5041319;28;20037;-68
2022/04/16 05:23:51;;;;;;;0.00;0.00;;;7.30;99.90;;;;;;5044802;28;20052;-67
2022/04/16 05:26:17;;;;;;;0.00;0.00;;;7.20;99.90;;;;;;5044047;28;20370;-68
2022/04/16 05:28:42;;;;;;;0.00;0.00;;;7.20;99.90;;;;;;5044752;28;20431;-67
2022/04/16 05:31:08;;;;;;;0.00;0.00;;;7.40;99.90;;;;;;5044317;28;20041;-67
2022/04/16 05:36:18;;;;;;;0.20;0.20;;;7.30;99.90;;;;;;5042680;28;20084;-67
2022/04/16 05:38:44;;;;;;;0.00;0.00;;;7.40;99.90;;;;;;5059320;28;20153;-67
2022/04/16 05:41:10;;;;;;;0.00;0.00;;;7.60;99.90;;;;;;5044259;28;20033;-65
2022/04/16 05:43:36;;;;;;;0.00;0.00;;;7.80;99.90;;;;;;5053322;28;20036;-67
2022/04/16 05:46:02;;;;;;;0.20;0.20;;;8.10;99.90;;;;;;5056980;28;20051;-68
2022/04/16 05:48:27;;;;;;;0.10;0.10;;;8.40;99.90;;;;;;5051229;28;20048;-70
2022/04/16 05:50:53;;;;;;;0.22;0.15;;;8.80;99.90;;;;;;5041985;28;20045;-68
2022/04/16 05:53:21;;;;;;;0.00;0.00;;;9.00;99.90;;;;;;5043527;28;20040;-69
2022/04/16 05:55:48;;;;;;;0.00;0.00;;;9.10;99.90;;;;;;5043640;28;20702;-69
2022/04/16 05:58:15;;;;;;;0.15;0.03;;;9.30;99.90;;;;;;5043670;28;20116;-65
2022/04/16 06:00:41;;;;;;;0.32;0.32;;;9.50;99.90;;;;;;5044120;28;20052;-69
2022/04/16 06:03:07;;;;;;;0.03;0.03;;;9.50;99.90;;;;;;5042459;28;20037;-68
2022/04/16 06:05:33;;;;;;;0.20;0.20;;;9.50;99.90;;;;;;5042460;28;20140;-68
2022/04/16 06:07:59;;;;;;;0.43;0.43;;;9.80;99.90;;;;;;5043667;28;20167;-68
2022/04/16 06:10:25;;;;;;;0.00;0.00;;;10.10;99.90;;;;;;5043156;28;20057;-68
2022/04/16 06:12:51;;;;;;;0.00;0.00;;;11.40;99.90;;;;;;5043309;28;20089;-68
2022/04/16 06:15:16;;;;;;;0.03;0.03;;;10.20;99.90;;;;;;5043361;28;20488;-69
2022/04/16 06:17:42;;;;;;;0.08;0.05;;;10.10;99.90;;;;;;5044045;28;20113;-68
2022/04/16 06:20:08;;;;;;;0.00;0.00;;;10.20;99.90;;;;;;5043818;28;20072;-68
2022/04/16 06:22:34;;;;;;;0.03;0.03;;;10.50;99.90;;;;;;5051426;28;20091;-68
2022/04/16 06:25:01;;;;;;;0.00;0.00;;;10.50;99.90;;;;;;5073448;28;20861;-68
2022/04/16 06:27:26;;;;;;;0.00;0.00;;;10.60;99.90;;;;;;5068018;28;20055;-68
2022/04/16 06:29:52;;;;;;;0.00;0.00;;;10.50;99.90;;;;;;5063006;28;20471;-69
2022/04/16 06:32:18;;;;;;;0.03;0.03;;;10.50;99.90;;;;;;5061429;28;20570;-68
2022/04/16 06:34:43;;;;;;;0.00;0.00;;;10.70;99.90;;;;;;5063372;28;20045;-68
2022/04/16 06:37:09;;;;;;;0.00;0.00;;;10.80;99.90;;;;;;5062743;28;20048;-69
2022/04/16 06:39:35;;;;;;;0.00;0.00;;;10.80;99.90;;;;;;5062416;28;20044;-68
2022/04/16 06:42:01;;;;;;;0.00;0.00;;;10.80;99.90;;;;;;5063275;28;20044;-68
2022/04/16 06:44:27;;;;;;;0.00;0.00;;;10.80;99.90;;;;;;5062066;28;20045;-68
2022/04/16 06:46:54;;;;;;;0.00;0.00;;;11.80;99.90;;;;;;5056449;28;20048;-69
2022/04/16 06:49:20;;;;;;;0.00;0.00;;;11.00;99.90;;;;;;5041127;28;20088;-69
2022/04/16 06:51:46;;;;;;;0.00;0.00;;;11.20;99.90;;;;;;5042084;28;20477;-68
2022/04/16 06:54:12;;;;;;;0.00;0.00;;;11.40;99.90;;;;;;5042844;28;20400;-72
2022/04/16 06:56:37;;;;;;;0.00;0.00;;;12.60;99.90;;;;;;5042327;28;20041;-68
2022/04/16 06:59:03;;;;;;;0.00;0.00;;;11.90;99.90;;;;;;5058475;28;20041;-69
2022/04/16 07:01:29;;;;;;;0.20;0.20;;;11.90;99.90;;;;;;5042072;28;20053;-69
2022/04/16 07:03:54;;;;;;;0.00;0.00;;;11.90;99.90;;;;;;5041195;28;20127;-66
2022/04/16 07:06:20;;;;;;;0.20;0.20;;;11.90;99.90;;;;;;5040116;28;20045;-65
2022/04/16 07:08:46;;;;;;;0.10;0.10;;;11.60;99.90;;;;;;5042100;28;20049;-69
2022/04/16 07:11:11;;;;;;;0.00;0.00;;;11.70;99.90;;;;;;5042297;28;20076;-66
2022/04/16 07:13:37;;;;;;;0.00;0.00;;;11.20;99.90;;;;;;5041762;28;20053;-67
2022/04/16 07:16:03;;;;;;;0.10;0.10;;;11.20;99.90;;;;;;5041919;28;20036;-67
2022/04/16 07:18:28;;;;;;;0.00;0.00;;;10.80;99.90;;;;;;5042027;28;20118;-66
2022/04/16 07:20:54;;;;;;;0.00;0.00;;;11.40;99.90;;;;;;5041523;28;20407;-66
2022/04/16 07:23:20;;;;;;;0.10;0.10;;;11.50;99.90;;;;;;5041354;28;20069;-66
2022/04/16 07:25:45;;;;;;;0.00;0.00;;;11.50;99.90;;;;;;5042330;28;20496;-66
2022/04/16 07:28:12;;;;;;;0.00;0.00;;;11.70;99.90;;;;;;5042014;28;20090;-66
2022/04/16 07:30:38;;;;;;;0.00;0.00;;;11.70;99.90;;;;;;5040891;28;20084;-66
2022/04/16 07:33:04;;;;;;;0.00;0.00;;;12.70;99.90;;;;;;5041511;28;20075;-65
2022/04/16 07:35:29;;;;;;;0.10;0.10;;;12.00;99.90;;;;;;5040789;28;20555;-66
2022/04/16 07:37:58;;;;;;;0.00;0.00;;;12.10;99.90;;;;;;5042076;28;20218;-66
2022/04/16 07:40:25;;;;;;;0.08;0.08;;;12.30;99.90;;;;;;5041606;28;20041;-66
2022/04/16 07:42:50;;;;;;;0.00;0.00;;;13.20;99.90;;;;;;5041691;28;20424;-66
2022/04/16 07:45:16;;;;;;;0.00;0.00;;;12.10;99.90;;;;;;5042545;28;20047;-67
2022/04/16 07:47:42;;;;;;;0.00;0.00;;;12.70;99.90;;;;;;5051073;28;20041;-65
2022/04/16 07:50:08;;;;;;;0.00;0.00;;;12.30;99.90;;;;;;5041771;28;20048;-66
2022/04/16 07:52:33;;;;;;;0.00;0.00;;;12.40;99.90;;;;;;5053652;28;20087;-65
2022/04/16 07:54:59;;;;;;;0.00;0.00;;;12.50;99.90;;;;;;5053109;28;20153;-65
2022/04/16 07:57:25;;;;;;;0.00;0.00;;;12.70;99.90;;;;;;5054925;28;20039;-65
2022/04/16 07:59:50;;;;;;;0.00;0.00;;;12.00;99.90;;;;;;5043856;28;20041;-66
2022/04/16 08:02:16;;;;;;;0.00;0.00;;;12.20;99.90;;;;;;5039539;28;20079;-63
2022/04/16 08:04:41;;;;;;;0.00;0.00;;;12.50;99.90;;;;;;5039818;28;20150;-65
2022/04/16 08:07:07;;;;;;;0.00;0.00;;;12.40;99.90;;;;;;5039996;28;20056;-67
2022/04/16 08:09:33;;;;;;;0.10;0.10;;;12.60;99.90;;;;;;5040502;28;20178;-67
2022/04/16 08:11:58;;;;;;;0.00;0.00;;;12.80;99.90;;;;;;5041722;28;20130;-66
2022/04/16 08:14:25;;;;;;;0.00;0.00;;;12.40;99.90;;;;;;5041048;28;20071;-66
2022/04/16 08:16:50;;;;;;;0.00;0.00;;;12.30;99.90;;;;;;5041119;28;20053;-66
2022/04/16 08:19:16;;;;;;;0.00;0.00;;;12.30;99.90;;;;;;5041328;28;20045;-66
2022/04/16 08:21:42;;;;;;;0.00;0.00;;;12.10;99.90;;;;;;5039478;28;20543;-66
2022/04/16 08:24:22;;;;;;;0.00;0.00;;;12.10;99.90;;;;;;5040583;28;20143;-66
2022/04/16 08:26:48;;;;;;;0.00;0.00;;;12.30;99.90;;;;;;5041368;28;20041;-66
2022/04/16 08:29:13;;;;;;;0.00;0.00;;;12.20;99.90;;;;;;5041189;28;20514;-60
2022/04/16 08:31:39;;;;;;;0.00;0.00;;;12.40;99.90;;;;;;5041537;28;20069;-68
2022/04/16 08:34:05;;;;;;;0.00;0.00;;;12.30;99.90;;;;;;5041514;28;20221;-66
2022/04/16 08:36:30;;;;;;;0.00;0.00;;;11.70;99.90;;;;;;5040164;28;20036;-66
2022/04/16 08:38:56;;;;;;;0.00;0.00;;;11.70;99.90;;;;;;5041417;28;20029;-66
2022/04/16 08:41:24;;;;;;;0.00;0.00;;;11.90;99.90;;;;;;5041036;28;20079;-65
2022/04/16 08:43:53;;;;;;;0.00;0.00;;;11.70;99.90;;;;;;5041247;28;20037;-65
2022/04/16 08:46:18;;;;;;;0.00;0.00;;;11.80;99.90;;;;;;5045092;28;20040;-66
2022/04/16 08:48:44;;;;;;;0.00;0.00;;;11.90;99.90;;;;;;5046374;28;20616;-66
2022/04/16 08:51:11;;;;;;;0.00;0.00;;;11.70;99.90;;;;;;5038300;28;20106;-66
2022/04/16 08:53:37;;;;;;;0.10;0.10;;;11.10;99.90;;;;;;5041416;28;20045;-66
2022/04/16 08:56:03;;;;;;;0.00;0.00;;;11.10;99.90;;;;;;5042651;28;20065;-65
2022/04/16 08:58:30;;;;;;;0.00;0.00;;;11.50;99.90;;;;;;5044728;28;20045;-66
2022/04/16 09:00:56;;;;;;;0.10;0.10;;;11.50;99.90;;;;;;5045382;28;20442;-67
2022/04/16 09:03:30;;;;;;;0.00;0.00;;;11.70;99.90;;;;;;5044546;28;20045;-75
2022/04/16 09:05:55;;;;;;;0.00;0.00;;;12.30;99.90;;;;;;5043043;28;20650;-64
2022/04/16 09:08:28;;;;;;;0.20;0.10;;;12.00;99.90;;;;;;5044142;28;20045;-65
2022/04/16 09:11:07;;;;;;;0.00;0.00;;;11.70;99.90;;;;;;5044995;28;20472;-66
2022/04/16 09:13:34;;;;;;;0.00;0.00;;;11.60;99.90;;;;;;5043544;28;20075;-64
2022/04/16 09:16:06;;;;;;;0.00;0.00;;;11.70;99.90;;;;;;5044408;28;20286;-64
2022/04/16 09:18:51;;;;;;;0.00;0.00;;;11.70;99.90;;;;;;5044147;28;20045;-65
2022/04/16 09:21:17;;;;;;;0.00;0.00;;;11.50;99.90;;;;;;5043707;28;20124;-65
2022/04/16 09:23:47;;;;;;;0.00;0.00;;;12.40;99.90;;;;;;5044762;28;20431;-64
2022/04/16 09:26:24;;;;;;;0.00;0.00;;;11.90;99.90;;;;;;5044442;28;20037;-64
2022/04/16 09:28:49;;;;;;;0.00;0.00;;;12.70;99.90;;;;;;5044636;28;20037;-65
2022/04/16 09:31:15;;;;;;;0.00;0.00;;;13.40;99.90;;;;;;5043930;28;20037;-64
2022/04/16 09:33:41;;;;;;;0.00;0.00;;;12.80;99.90;;;;;;5044335;28;20132;-64
2022/04/16 09:36:07;;;;;;;0.00;0.00;;;13.10;99.90;;;;;;5043419;28;20120;-65
2022/04/16 09:38:37;;;;;;;0.00;0.00;;;13.10;99.90;;;;;;5042802;28;20064;-64
2022/04/16 09:41:08;;;;;;;0.00;0.00;;;13.40;99.90;;;;;;5044386;28;20098;-65
2022/04/16 09:43:37;;;;;;;0.00;0.00;;;13.20;99.90;;;;;;5043102;28;20059;-65
2022/04/16 09:46:11;;;;;;;0.20;0.20;;;13.10;99.90;;;;;;5048186;28;20045;-64
2022/04/16 09:48:37;;;;;;;0.00;0.00;;;13.50;99.90;;;;;;5049026;28;20445;-64
2022/04/16 09:51:04;;;;;;;0.00;0.00;;;13.40;99.90;;;;;;5042901;28;20486;-64
2022/04/16 09:53:31;;;;;;;0.00;0.00;;;13.50;99.90;;;;;;5043536;28;20443;-64
2022/04/16 09:55:58;;;;;;;0.00;0.00;;;13.40;99.90;;;;;;5043615;28;20554;-64
2022/04/16 09:58:35;;;;;;;0.00;0.00;;;13.90;99.90;;;;;;5058036;28;20045;-64
2022/04/16 10:01:01;;;;;;;0.00;0.00;;;14.00;99.90;;;;;;5044054;28;20048;-65
2022/04/16 10:03:29;;;;;;;0.00;0.00;;;13.70;99.90;;;;;;5042947;28;20102;-65
2022/04/16 10:05:59;;;;;;;0.00;0.00;;;13.20;99.90;;;;;;5042370;28;20135;-65
2022/04/16 10:08:28;;;;;;;0.00;0.00;;;13.10;99.90;;;;;;5043031;28;20080;-65
2022/04/16 10:10:57;;;;;;;0.00;0.00;;;13.50;99.90;;;;;;5043224;28;20450;-65
2022/04/16 10:13:29;;;;;;;0.00;0.00;;;13.60;99.90;;;;;;5041862;28;20527;-64
2022/04/16 10:15:57;;;;;;;0.60;0.10;;;13.10;99.90;;;;;;5043572;28;20456;-65
2022/04/16 10:18:24;;;;;;;0.10;0.10;;;13.40;99.90;;;;;;5042858;28;20056;-65
2022/04/16 10:20:56;;;;;;;0.00;0.00;;;14.00;99.90;;;;;;5040673;28;20040;-64
2022/04/16 10:23:30;;;;;;;0.00;0.00;;;13.20;99.90;;;;;;5042756;28;20045;-65
2022/04/16 10:26:05;;;;;;;0.00;0.00;;;13.80;99.90;;;;;;5042036;28;20044;-64
2022/04/16 10:28:35;;;;;;;0.00;0.00;;;14.20;99.90;;;;;;5042624;28;20098;-65
2022/04/16 10:31:01;;;;;;;0.00;0.00;;;14.50;99.90;;;;;;5043440;28;20045;-65
2022/04/16 10:33:28;;;;;;;0.00;0.00;;;14.70;99.90;;;;;;5041400;28;20048;-64
2022/04/16 10:35:58;;;;;;;0.00;0.00;;;14.90;99.90;;;;;;5041757;28;20579;-64
2022/04/16 10:38:37;;;;;;;0.00;0.00;;;14.80;99.90;;;;;;5042150;28;20044;-65
2022/04/16 10:41:09;;;;;;;0.00;0.00;;;15.30;99.90;;;;;;5042712;28;20037;-65
2022/04/16 10:43:35;;;;;;;0.00;0.00;;;15.30;99.90;;;;;;5042681;28;20045;-68
2022/04/16 10:46:08;;;;;;;0.00;0.00;;;15.10;99.90;;;;;;5045949;28;20048;-63
2022/04/16 10:48:38;;;;;;;0.00;0.00;;;14.90;99.00;;;;;;5048065;28;20720;-64
2022/04/16 10:51:08;;;;;;;0.00;0.00;;;14.70;99.90;;;;;;5056746;28;20521;-63
2022/04/16 10:53:36;;;;;;;0.00;0.00;;;15.30;99.10;;;;;;5040721;28;20092;-63
2022/04/16 10:56:12;;;;;;;0.00;0.00;;;14.90;98.70;;;;;;5040904;28;20703;-63
2022/04/16 10:58:43;;;;;;;0.00;0.00;;;14.20;99.50;;;;;;5042879;28;20049;-64
2022/04/16 11:01:11;;;;;;;0.00;0.00;;;14.70;99.90;;;;;;5034737;28;20037;-63
2022/04/16 11:03:49;;;;;;;0.00;0.00;;;14.70;98.00;;;;;;5048206;28;20053;-64
2022/04/16 11:06:16;;;;;;;0.00;0.00;;;14.20;98.20;;;;;;5051687;28;20052;-64
2022/04/16 11:08:45;;;;;;;0.10;0.10;;;14.20;99.40;;;;;;5055401;28;20384;-65
2022/04/16 11:11:12;;;;;;;0.00;0.00;;;14.90;99.60;;;;;;5056668;28;20381;-64
2022/04/16 11:13:39;;;;;;;0.00;0.00;;;14.90;99.00;;;;;;5050320;28;20048;-64
2022/04/16 11:16:06;;;;;;;0.10;0.10;;;14.80;98.30;;;;;;5060393;28;20044;-64
2022/04/16 11:18:44;;;;;;;0.00;0.00;;;15.10;99.30;;;;;;5054814;28;20071;-64
2022/04/16 11:21:13;;;;;;;0.00;0.00;;;15.20;99.00;;;;;;5060909;28;20036;-65
2022/04/16 11:23:50;;;;;;;0.10;0.10;;;15.20;99.90;;;;;;5060628;28;20058;-64
2022/04/16 11:34:32;;;;;;;0.00;0.00;;;15.40;98.40;;;;;;5060933;28;20052;-63
2022/04/16 11:36:59;;;;;;;0.00;0.00;;;15.00;98.20;;;;;;5060422;28;20112;-62
2022/04/16 11:39:29;;;;;;;0.00;0.00;;;15.00;97.70;;;;;;5060691;28;20048;-62
2022/04/16 11:41:55;;;;;;;0.00;0.00;;;14.90;98.50;;;;;;5061268;28;20542;-64
2022/04/16 11:44:44;;;;;;;0.00;0.00;;;14.70;97.20;;;;;;5060493;28;20044;-65
2022/04/16 11:47:27;;;;;;;0.00;0.00;;;14.70;97.20;;;;;;5052373;28;20040;-62
2022/04/16 11:49:59;;;;;;;0.00;0.00;;;14.40;98.00;;;;;;5040878;28;20087;-64
2022/04/16 11:52:29;;;;;;;0.00;0.00;;;14.00;96.70;;;;;;5041402;28;20419;-63
2022/04/16 11:55:01;;;;;;;0.00;0.00;;;13.70;98.10;;;;;;5039335;28;20080;-64
2022/04/16 11:57:26;;;;;;;0.00;0.00;;;14.40;98.00;;;;;;5040879;28;20384;-63
2022/04/16 11:59:59;;;;;;;0.08;0.08;;;15.00;97.70;;;;;;5041117;28;20044;-64
2022/04/16 12:02:36;;;;;;;0.00;0.00;;;14.80;95.80;;;;;;5040242;28;20045;-64
2022/04/16 12:05:07;;;;;;;0.00;0.00;;;14.60;95.10;;;;;;5041002;28;20044;-63
2022/04/16 12:07:34;;;;;;;0.00;0.00;;;14.40;95.80;;;;;;5040873;28;20466;-64
2022/04/16 12:10:02;;;;;;;0.10;0.10;;;13.90;94.90;;;;;;5040710;28;20052;-65
2022/04/16 12:12:28;;;;;;;0.00;0.00;;;14.60;94.80;;;;;;5039325;28;20395;-63
2022/04/16 12:14:55;;;;;;;0.05;0.05;;;14.30;94.80;;;;;;5041519;28;20124;-63
2022/04/16 12:17:25;;;;;;;0.00;0.00;;;14.20;95.00;;;;;;5040074;28;20146;-63
2022/04/16 12:19:57;;;;;;;0.00;0.00;;;14.40;94.30;;;;;;5040501;28;20053;-62
2022/04/16 12:22:22;;;;;;;0.10;0.10;;;14.70;95.10;;;;;;5040719;28;20384;-70
2022/04/16 12:24:48;;;;;;;0.00;0.00;;;15.00;95.90;;;;;;5040498;28;20127;-64
2022/04/16 12:27:25;;;;;;;0.00;0.00;;;15.30;94.90;;;;;;5040824;28;20094;-63
2022/04/16 12:29:52;;;;;;;0.00;0.00;;;15.60;95.70;;;;;;5041330;28;20084;-64
2022/04/16 12:32:28;;;;;;;0.00;0.00;;;15.40;94.00;;;;;;5038751;28;20936;-63
2022/04/16 12:34:54;;;;;;;0.00;0.00;;;15.60;94.70;;;;;;5038931;28;20049;-64
2022/04/16 12:37:21;;;;;;;0.00;0.00;;;15.90;95.10;;;;;;5040834;28;20056;-63
2022/04/16 12:39:48;;;;;;;0.00;0.00;;;16.00;94.70;;;;;;5040220;28;20651;-63
2022/04/16 12:42:14;;;;;;;0.00;0.00;;;16.10;95.00;;;;;;5040724;28;20045;-63
2022/04/16 12:44:39;;;;;;;0.00;0.00;;;16.20;94.50;;;;;;5052629;28;20117;-61
2022/04/16 12:47:05;;;;;;;0.00;0.00;;;15.60;93.00;;;;;;5057793;28;20087;-64
2022/04/16 12:49:31;;;;;;;0.00;0.00;;;15.30;92.70;;;;;;5057451;28;20063;-63
2022/04/16 12:51:58;;;;;;;0.00;0.00;;;15.60;94.10;;;;;;5058780;28;20048;-63
2022/04/16 12:54:23;;;;;;;0.00;0.00;;;15.80;94.70;;;;;;5059958;28;20084;-62
2022/04/16 12:56:49;;;;;;;0.00;0.00;;;15.80;92.90;;;;;;5060595;28;20048;-63
2022/04/16 12:59:14;;;;;;;0.00;0.00;;;15.80;93.20;;;;;;5057784;28;20059;-62
2022/04/16 13:01:40;;;;;;;0.15;0.15;;;15.80;93.70;;;;;;5059362;28;20081;-63
2022/04/16 13:04:06;;;;;;;0.00;0.00;;;15.60;92.50;;;;;;5060745;28;20040;-66
2022/04/16 13:06:31;;;;;;;0.00;0.00;;;15.50;93.10;;;;;;5049447;28;20056;-64
2022/04/16 13:09:00;;;;;;;0.00;0.00;;;14.70;92.30;;;;;;5043222;28;20040;-64
2022/04/16 13:11:26;;;;;;;0.00;0.00;;;15.10;95.20;;;;;;5045564;28;20049;-64